Time;durP1;ratioP1;P1;durP2;ratioP2;P2;SDS_P1;SDS_P2;PMS_P1;PMS_P2;Temp;Humidity;BMP_temperature;BMP_pressure;BME280_temperature;BME280_humidity;BME280_pressure;Samples;Min_cycle;Max_cycle;Signal;HPM_P1;HPM_P2
2023/01/17 00:02:08;;;;;;;1.95;0.90;;;;;;;20.73;38.52;97834.53;5052141;28;20474;-73
2023/01/17 00:10:08;;;;;;;0.68;0.68;;;;;;;20.93;38.36;97880.63;5038170;28;20032;-73
2023/01/17 00:12:34;;;;;;;1.23;0.98;;;;;;;20.87;38.55;97885.13;5031604;28;20033;-73
2023/01/17 00:15:00;;;;;;;2.33;0.88;;;;;;;20.88;38.40;97892.00;5042904;28;20560;-74
2023/01/17 00:17:28;;;;;;;2.00;0.93;;;;;;;20.85;38.45;97886.44;5040156;28;20056;-73
2023/01/17 01:34:33;;;;;;;0.77;0.50;;;;;;;20.44;38.17;97997.97;5034880;28;20577;-73
2023/01/17 01:36:58;;;;;;;0.52;0.40;;;;;;;20.44;38.30;98011.19;5038665;28;20037;-73
2023/01/17 01:39:24;;;;;;;1.13;0.40;;;;;;;20.43;38.33;98016.72;5038534;28;20059;-73
2023/01/17 01:41:49;;;;;;;0.98;0.40;;;;;;;20.41;38.32;98016.19;5040040;28;20033;-73
2023/01/17 01:44:52;;;;;;;0.90;0.68;;;;;;;20.44;38.22;98042.13;5039535;28;20045;-73
2023/01/17 01:47:29;;;;;;;0.88;0.50;;;;;;;20.42;38.24;98044.22;5016621;28;20549;-73
2023/01/17 01:49:58;;;;;;;1.45;0.73;;;;;;;20.41;38.22;98050.53;5041390;28;20074;-73
2023/01/17 01:52:27;;;;;;;1.30;0.60;;;;;;;20.40;38.20;98043.63;5034135;28;20108;-73
2023/01/17 01:54:59;;;;;;;2.67;1.00;;;;;;;20.37;38.01;98041.50;5028989;28;20034;-73
2023/01/17 01:57:31;;;;;;;1.10;0.40;;;;;;;20.32;38.06;98029.03;5038247;28;20025;-73
2023/01/17 02:00:10;;;;;;;0.93;0.60;;;;;;;20.41;38.03;98063.75;5038086;28;20846;-73
2023/01/17 02:02:39;;;;;;;1.00;0.32;;;;;;;20.46;38.11;98063.81;5043334;28;20680;-73
2023/01/17 02:05:05;;;;;;;1.40;0.88;;;;;;;20.41;38.10;98069.84;5037286;28;20119;-73
2023/01/17 02:07:37;;;;;;;0.40;0.32;;;;;;;20.42;38.11;98076.72;5037670;28;20375;-73
2023/01/17 02:10:04;;;;;;;1.05;0.40;;;;;;;20.35;38.21;98070.03;5041676;28;20040;-73
2023/01/17 02:12:29;;;;;;;1.17;0.70;;;;;;;20.13;38.35;98052.38;5041091;28;20251;-73
2023/01/17 02:14:55;;;;;;;1.02;0.38;;;;;;;20.29;38.41;98082.41;5028849;28;20490;-73
2023/01/17 02:17:46;;;;;;;2.25;0.90;;;;;;;20.37;38.06;98092.50;5045182;28;20033;-73
2023/01/17 02:20:39;;;;;;;1.67;0.63;;;;;;;20.34;38.31;98094.84;5025435;28;20360;-73
2023/01/17 02:23:07;;;;;;;3.42;0.65;;;;;;;20.24;38.37;98114.03;5036562;28;20035;-73
2023/01/17 02:26:06;;;;;;;0.85;0.32;;;;;;;20.19;38.26;98114.78;5024326;28;20092;-73
2023/01/17 02:28:47;;;;;;;1.60;0.40;;;;;;;20.24;38.14;98127.25;5042582;28;20040;-73
2023/01/17 02:31:40;;;;;;;1.30;0.60;;;;;;;20.28;38.16;98114.34;5039457;28;20037;-73
2023/01/17 02:34:11;;;;;;;0.95;0.65;;;;;;;20.26;38.14;98117.22;5037193;28;20047;-73
2023/01/17 02:36:44;;;;;;;1.02;0.47;;;;;;;20.23;38.16;98117.72;5041580;28;20075;-73
2023/01/17 02:39:21;;;;;;;0.40;0.40;;;;;;;20.25;38.25;98118.28;5023117;28;20147;-73
2023/01/17 02:42:02;;;;;;;0.95;0.50;;;;;;;20.26;38.21;98116.41;5033078;28;20144;-73
2023/01/17 02:44:28;;;;;;;;;;;;;;;20.27;38.25;98118.81;5027129;28;20437;-73
2023/01/17 02:46:56;;;;;;;1.85;0.43;;;;;;;20.24;38.28;98129.88;5042033;28;20802;-73
2023/01/17 02:49:26;;;;;;;0.77;0.25;;;;;;;20.16;38.49;98125.06;5040900;28;20711;-73
2023/01/17 02:52:10;;;;;;;1.08;0.38;;;;;;;20.18;38.46;98133.53;5040722;28;20060;-73
2023/01/17 02:54:41;;;;;;;2.05;0.50;;;;;;;20.17;38.33;98138.00;5040155;28;20113;-73
2023/01/17 02:57:26;;;;;;;3.42;0.60;;;;;;;20.30;38.11;98146.63;5040561;28;20044;-73
2023/01/17 03:00:07;;;;;;;1.25;0.50;;;;;;;20.22;38.27;98138.06;5039287;28;20775;-73
2023/01/17 03:02:54;;;;;;;0.75;0.50;;;;;;;20.21;38.33;98146.25;5039490;28;20041;-73
2023/01/17 03:05:41;;;;;;;0.90;0.55;;;;;;;20.19;38.36;98156.25;5044058;28;20124;-73
2023/01/17 03:08:08;;;;;;;0.75;0.57;;;;;;;20.18;38.04;98158.09;5042047;28;20045;-73
2023/01/17 03:10:35;;;;;;;0.40;0.20;;;;;;;20.18;38.21;98183.72;5043482;28;20486;-73
2023/01/17 03:13:01;;;;;;;2.35;0.63;;;;;;;20.10;38.47;98186.78;5022186;28;20037;-73
2023/01/17 03:15:27;;;;;;;1.17;0.60;;;;;;;20.13;38.27;98194.25;5040003;28;20060;-73
2023/01/17 03:17:57;;;;;;;1.63;0.75;;;;;;;20.12;38.26;98176.78;5025312;28;20049;-73
2023/01/17 03:20:22;;;;;;;;;;;;;;;20.08;38.44;98204.72;5043885;28;20025;-73
2023/01/17 03:22:48;;;;;;;1.35;0.60;;;;;;;20.03;38.29;98178.25;5038913;28;20365;-73
2023/01/17 03:25:13;;;;;;;1.05;0.40;;;;;;;20.10;38.33;98178.84;5039325;28;20048;-73
2023/01/17 03:27:39;;;;;;;1.17;0.65;;;;;;;20.13;38.26;98189.75;5037555;28;20045;-73
2023/01/17 03:30:05;;;;;;;1.23;0.50;;;;;;;20.05;38.56;98190.16;5037641;28;20087;-73
2023/01/17 03:32:30;;;;;;;1.73;0.55;;;;;;;20.07;38.37;98196.00;5044187;28;20029;-73
2023/01/17 03:34:56;;;;;;;0.73;0.50;;;;;;;20.06;38.42;98201.53;5023058;28;20524;-73
2023/01/17 03:37:21;;;;;;;1.20;0.57;;;;;;;20.07;38.29;98193.34;5040082;28;20044;-73
2023/01/17 03:39:47;;;;;;;1.65;0.57;;;;;;;20.04;38.45;98208.91;5038328;28;20033;-73
2023/01/17 03:42:12;;;;;;;0.43;0.30;;;;;;;20.08;38.37;98212.66;5038329;28;20037;-73
2023/01/17 03:44:38;;;;;;;1.02;0.50;;;;;;;20.02;38.28;98218.91;5037495;28;20036;-73
2023/01/17 03:47:03;;;;;;;2.50;0.60;;;;;;;20.04;38.44;98228.19;5018430;28;20049;-73
2023/01/17 03:49:30;;;;;;;0.30;0.30;;;;;;;20.01;38.50;98218.13;5040159;28;20044;-73
2023/01/17 03:51:55;;;;;;;0.95;0.40;;;;;;;20.08;38.33;98225.84;5038809;28;20037;-73
2023/01/17 03:54:21;;;;;;;1.45;0.63;;;;;;;19.97;38.61;98218.84;5023634;28;20044;-73
2023/01/17 03:56:46;;;;;;;1.25;0.30;;;;;;;20.07;38.23;98216.34;5042197;28;20816;-73
2023/01/17 03:59:12;;;;;;;1.48;0.50;;;;;;;20.03;38.47;98228.44;5039398;28;20041;-73
2023/01/17 04:01:37;;;;;;;0.60;0.50;;;;;;;19.92;38.61;98224.84;5038512;28;20044;-73
2023/01/17 04:04:03;;;;;;;0.70;0.50;;;;;;;20.02;38.47;98232.13;5038060;28;20049;-73
2023/01/17 04:06:28;;;;;;;2.33;0.38;;;;;;;19.96;38.64;98239.19;5042379;28;20036;-73
2023/01/17 04:08:54;;;;;;;1.52;0.57;;;;;;;19.96;38.55;98235.75;5039873;28;20509;-73
2023/01/17 04:11:19;;;;;;;1.70;0.50;;;;;;;19.97;38.49;98234.69;5037537;28;20052;-73
2023/01/17 04:13:45;;;;;;;0.95;0.40;;;;;;;19.85;38.49;98221.59;5034857;28;20033;-73
2023/01/17 04:16:16;;;;;;;1.35;0.65;;;;;;;19.81;38.74;98239.75;5040157;28;20037;-73
2023/01/17 04:18:42;;;;;;;1.63;0.60;;;;;;;19.94;38.54;98249.19;5040307;28;20052;-73
2023/01/17 04:21:08;;;;;;;1.30;0.38;;;;;;;19.97;38.44;98251.34;5033853;28;20044;-73
2023/01/17 04:23:33;;;;;;;2.38;0.43;;;;;;;19.92;38.47;98248.59;5038123;28;20395;-73
2023/01/17 04:25:59;;;;;;;1.00;0.40;;;;;;;19.93;38.33;98260.81;5038782;28;20544;-73
2023/01/17 04:28:24;;;;;;;2.47;0.47;;;;;;;19.88;38.70;98264.16;5023339;28;20037;-73
2023/01/17 04:30:50;;;;;;;1.48;0.30;;;;;;;19.92;38.48;98275.03;5024489;28;20139;-73
2023/01/17 04:33:17;;;;;;;1.38;0.40;;;;;;;20.00;38.37;98273.81;5044470;28;20048;-73
2023/01/17 04:35:43;;;;;;;1.02;0.45;;;;;;;19.88;38.77;98266.00;5038490;28;20084;-73
2023/01/17 04:38:08;;;;;;;1.13;0.43;;;;;;;19.84;38.67;98278.09;5038128;28;20437;-73
2023/01/17 04:40:33;;;;;;;1.50;1.23;;;;;;;19.96;38.50;98280.66;5040583;28;20056;-73
2023/01/17 04:42:59;;;;;;;1.88;0.45;;;;;;;19.89;38.56;98284.22;5037917;28;20036;-73
2023/01/17 04:45:25;;;;;;;0.98;0.47;;;;;;;19.82;38.78;98274.88;5037812;28;20040;-73
2023/01/17 04:47:50;;;;;;;2.72;0.60;;;;;;;19.88;38.58;98282.63;5040171;28;20064;-72
2023/01/17 04:50:17;;;;;;;0.77;0.50;;;;;;;19.90;38.46;98280.53;5039200;28;20037;-73
2023/01/17 04:52:42;;;;;;;1.27;0.60;;;;;;;19.84;38.51;98278.88;5036495;28;20081;-73
2023/01/17 04:55:08;;;;;;;0.73;0.45;;;;;;;19.88;38.51;98285.28;5039007;28;20025;-73
2023/01/17 04:57:33;;;;;;;1.35;0.50;;;;;;;19.93;38.49;98289.84;5039998;28;20624;-73
2023/01/17 04:59:59;;;;;;;1.95;0.85;;;;;;;19.80;39.01;98282.25;5035638;28;20048;-73
2023/01/17 05:02:24;;;;;;;1.10;0.30;;;;;;;19.81;38.59;98289.13;5047842;28;20037;-73
2023/01/17 05:04:50;;;;;;;0.85;0.40;;;;;;;19.80;38.66;98298.91;5048083;28;20727;-73
2023/01/17 05:07:15;;;;;;;1.00;0.32;;;;;;;19.85;38.74;98306.09;5036327;28;20095;-73
2023/01/17 05:09:42;;;;;;;1.92;0.60;;;;;;;19.87;38.60;98311.94;5042112;28;20040;-73
2023/01/17 05:12:08;;;;;;;1.83;0.50;;;;;;;19.83;38.61;98319.53;5035715;28;20033;-73
2023/01/17 05:14:34;;;;;;;2.33;0.60;;;;;;;19.80;38.66;98316.59;5042779;28;20528;-73
2023/01/17 05:16:59;;;;;;;2.28;0.73;;;;;;;19.81;38.69;98321.63;5036527;28;20512;-73
2023/01/17 05:19:26;;;;;;;0.90;0.22;;;;;;;19.81;38.46;98312.91;5040539;28;20045;-74
2023/01/17 05:21:52;;;;;;;2.33;0.50;;;;;;;19.80;38.67;98320.03;5039390;28;20048;-74
2023/01/17 05:24:18;;;;;;;1.40;0.52;;;;;;;19.81;38.59;98326.91;5043457;28;20347;-74
2023/01/17 05:26:44;;;;;;;0.52;0.40;;;;;;;19.73;38.83;98329.91;5040659;28;20106;-74
2023/01/17 05:29:10;;;;;;;1.63;0.40;;;;;;;19.80;38.25;98333.22;5038939;28;20032;-76
2023/01/17 05:31:36;;;;;;;1.55;0.40;;;;;;;19.79;38.66;98341.38;5038483;28;20389;-74
2023/01/17 05:34:02;;;;;;;0.70;0.20;;;;;;;19.81;38.55;98339.31;5039035;28;20044;-74
2023/01/17 05:36:27;;;;;;;1.85;0.70;;;;;;;19.76;38.64;98347.16;5038653;28;20127;-74
2023/01/17 05:38:53;;;;;;;0.77;0.40;;;;;;;19.68;38.86;98355.44;5043342;28;20037;-74
2023/01/17 05:41:18;;;;;;;2.65;0.63;;;;;;;19.69;38.70;98344.66;5040980;28;20632;-74
2023/01/17 05:43:44;;;;;;;1.48;0.70;;;;;;;19.69;38.76;98346.47;5036777;28;20087;-74
2023/01/17 05:46:09;;;;;;;0.93;0.40;;;;;;;19.51;38.70;98335.06;5044402;28;20044;-74
2023/01/17 05:48:35;;;;;;;1.75;0.70;;;;;;;19.59;38.71;98349.75;5025140;28;20825;-74
2023/01/17 05:51:01;;;;;;;0.63;0.50;;;;;;;19.65;38.75;98363.84;5042905;28;20033;-75
2023/01/17 05:53:27;;;;;;;2.08;0.50;;;;;;;19.53;39.07;98359.38;5043043;28;20816;-74
2023/01/17 05:55:52;;;;;;;0.45;0.30;;;;;;;19.65;38.69;98364.66;5024103;28;20107;-74
2023/01/17 05:58:20;;;;;;;1.55;0.40;;;;;;;19.50;38.88;98362.50;5042327;28;20044;-74
2023/01/17 06:00:46;;;;;;;0.60;0.28;;;;;;;19.65;38.69;98377.03;5040389;28;20037;-74
2023/01/17 06:03:12;;;;;;;0.85;0.47;;;;;;;19.58;38.89;98371.91;5043897;28;20115;-74
2023/01/17 06:05:38;;;;;;;0.10;0.10;;;;;;;19.67;38.63;98381.03;5043160;28;20065;-74
2023/01/17 06:08:04;;;;;;;0.70;0.55;;;;;;;19.66;38.58;98387.38;5041402;28;20140;-74
2023/01/17 06:10:30;;;;;;;1.15;0.60;;;;;;;19.69;38.62;98397.44;5041521;28;20033;-74
2023/01/17 06:13:03;;;;;;;1.55;0.68;;;;;;;19.65;38.61;98393.69;5043272;28;20766;-74
2023/01/17 06:15:29;;;;;;;0.93;0.45;;;;;;;19.51;39.07;98400.25;5038819;28;20123;-74
2023/01/17 06:17:54;;;;;;;1.10;0.47;;;;;;;19.64;38.72;98404.47;5042354;28;20033;-75
2023/01/17 06:20:20;;;;;;;1.35;0.40;;;;;;;19.58;38.82;98403.59;5024643;28;21128;-74
2023/01/17 06:22:45;;;;;;;1.98;0.60;;;;;;;19.64;38.69;98415.03;5042976;28;20045;-74
2023/01/17 06:25:11;;;;;;;1.77;0.40;;;;;;;19.70;38.64;98412.25;5037894;28;20055;-74
2023/01/17 06:27:36;;;;;;;0.95;0.50;;;;;;;19.66;38.76;98415.59;5041826;28;20087;-74
2023/01/17 06:30:03;;;;;;;1.40;0.47;;;;;;;19.63;38.65;98416.88;5037594;28;20451;-74
2023/01/17 06:32:28;;;;;;;0.43;0.30;;;;;;;19.62;38.73;98420.56;5040230;28;20049;-74
2023/01/17 06:34:54;;;;;;;0.47;0.22;;;;;;;19.70;38.62;98429.94;5039870;28;20055;-74
2023/01/17 06:37:19;;;;;;;0.60;0.30;;;;;;;19.63;38.88;98429.28;5037204;28;20049;-74
2023/01/17 06:39:45;;;;;;;0.47;0.30;;;;;;;19.65;38.73;98429.84;5041871;28;20171;-74
2023/01/17 06:42:10;;;;;;;1.83;0.50;;;;;;;19.68;38.79;98439.94;5021455;28;20132;-74
2023/01/17 06:44:36;;;;;;;3.28;0.50;;;;;;;19.71;38.67;98440.25;5019371;28;20036;-74
2023/01/17 06:47:01;;;;;;;1.00;0.52;;;;;;;19.57;38.82;98438.97;5043013;28;20063;-75
2023/01/17 06:49:27;;;;;;;0.90;0.70;;;;;;;19.61;38.86;98442.72;5041619;28;20056;-74
2023/01/17 06:51:52;;;;;;;1.08;0.38;;;;;;;19.85;38.37;98440.78;5041209;28;20038;-74
2023/01/17 06:54:18;;;;;;;0.40;0.30;;;;;;;20.68;37.19;98440.06;5040399;28;20135;-74
2023/01/17 06:56:43;;;;;;;1.23;0.70;;;;;;;22.02;35.00;98447.50;5042079;28;20476;-74
2023/01/17 06:59:09;;;;;;;1.13;0.32;;;;;;;22.90;33.33;98441.84;5037839;28;20049;-74
2023/01/17 07:01:34;;;;;;;1.30;0.35;;;;;;;23.14;33.11;98440.38;5034291;28;20037;-75
2023/01/17 07:04:00;;;;;;;2.30;0.50;;;;;;;23.06;32.98;98448.03;5038224;28;20382;-74
2023/01/17 07:06:27;;;;;;;1.00;0.43;;;;;;;22.93;33.56;98449.28;5040569;28;20121;-74
2023/01/17 07:08:55;;;;;;;1.75;0.32;;;;;;;22.70;33.89;98450.44;5033105;28;20044;-74
2023/01/17 07:11:21;;;;;;;3.75;0.88;;;;;;;22.48;34.10;98450.56;5032232;28;20395;-74
2023/01/17 07:13:47;;;;;;;0.32;0.25;;;;;;;22.27;34.79;98462.06;5030628;28;20036;-74
2023/01/17 07:16:12;;;;;;;0.75;0.30;;;;;;;22.10;35.13;98461.38;5040697;28;20049;-74
2023/01/17 07:18:41;;;;;;;1.05;0.35;;;;;;;21.92;35.23;98463.31;5039269;28;20041;-75
2023/01/17 07:21:13;;;;;;;1.42;0.30;;;;;;;21.86;35.26;98474.09;5041055;28;20025;-75
2023/01/17 07:23:39;;;;;;;;;;;;;;;21.78;35.58;98472.69;5040972;28;20048;-74
2023/01/17 07:26:05;;;;;;;0.90;0.35;;;;;;;21.62;35.95;98478.88;5040749;28;19920;-74
2023/01/17 07:28:30;;;;;;;1.77;0.50;;;;;;;21.59;35.87;98482.03;5037756;28;20044;-74
2023/01/17 07:30:56;;;;;;;0.35;0.35;;;;;;;21.45;36.08;98484.22;5037624;28;20041;-74
2023/01/17 07:33:21;;;;;;;1.35;0.30;;;;;;;21.38;36.18;98484.44;5039747;28;20041;-74
2023/01/17 07:35:47;;;;;;;1.35;0.50;;;;;;;21.31;36.36;98491.72;5040601;28;20049;-74
2023/01/17 07:38:17;;;;;;;0.60;0.30;;;;;;;21.19;36.79;98491.03;5043519;28;20045;-74
2023/01/17 07:40:43;;;;;;;;;;;;;;;21.07;37.01;98493.78;5040122;28;20041;-74
2023/01/17 07:43:15;;;;;;;1.10;0.40;;;;;;;20.93;37.28;98492.50;5037265;28;19982;-74
2023/01/17 07:45:51;;;;;;;1.33;0.60;;;;;;;20.89;37.38;98491.41;5039936;28;20037;-74
2023/01/17 07:48:18;;;;;;;0.85;0.40;;;;;;;20.81;37.57;98491.78;5039149;28;20053;-73
2023/01/17 07:50:44;;;;;;;0.95;0.30;;;;;;;20.75;37.60;98496.22;5041649;28;20053;-73
2023/01/17 07:53:10;;;;;;;1.00;0.35;;;;;;;20.66;37.85;98492.38;5045659;28;20086;-74
2023/01/17 07:55:35;;;;;;;1.05;0.43;;;;;;;20.69;37.57;98488.47;5041634;28;20039;-73
2023/01/17 07:58:01;;;;;;;1.83;0.65;;;;;;;20.69;37.65;98491.09;5040820;28;20040;-74
2023/01/17 08:00:27;;;;;;;2.00;0.50;;;;;;;20.57;37.82;98483.25;5030835;28;20048;-76
2023/01/17 08:02:57;;;;;;;0.25;0.25;;;;;;;20.57;37.56;98474.50;5035632;28;20042;-75
2023/01/17 08:05:23;;;;;;;;;;;;;;;20.65;37.54;98490.00;5041069;28;20040;-75
2023/01/17 08:07:48;;;;;;;1.13;0.52;;;;;;;20.64;37.53;98491.00;5033331;28;20570;-74
2023/01/17 08:10:16;;;;;;;0.70;0.50;;;;;;;20.63;37.53;98498.13;5038420;28;20647;-73
2023/01/17 08:12:46;;;;;;;1.23;0.63;;;;;;;20.62;37.58;98504.47;5038727;28;20033;-73
2023/01/17 08:15:11;;;;;;;0.30;0.30;;;;;;;20.57;37.41;98499.09;5036717;28;20581;-72
2023/01/17 08:17:37;;;;;;;0.30;0.30;;;;;;;20.57;37.64;98514.97;5043487;28;20047;-72
2023/01/17 08:20:04;;;;;;;1.02;0.35;;;;;;;20.63;37.39;98516.66;5035322;28;20067;-72
2023/01/17 08:22:30;;;;;;;1.10;0.65;;;;;;;21.28;36.21;98520.53;5036813;28;20037;-72
2023/01/17 08:24:56;;;;;;;1.63;0.70;;;;;;;21.71;35.47;98522.41;5037295;28;20041;-73
2023/01/17 08:27:22;;;;;;;1.73;0.52;;;;;;;22.06;34.97;98526.53;5034053;28;20096;-72
2023/01/17 08:29:48;;;;;;;1.35;0.40;;;;;;;22.09;34.69;98528.69;5038797;28;20045;-72
2023/01/17 08:32:15;;;;;;;0.63;0.20;;;;;;;22.01;35.10;98535.19;5036463;28;20044;-73
2023/01/17 08:34:40;;;;;;;0.98;0.50;;;;;;;21.88;35.32;98540.88;5009646;28;20045;-72
2023/01/17 08:37:06;;;;;;;0.98;0.60;;;;;;;21.81;35.36;98540.28;5034971;28;20048;-72
2023/01/17 08:39:32;;;;;;;0.88;0.20;;;;;;;21.50;35.67;98523.19;5021924;28;20045;-72
2023/01/17 08:41:57;;;;;;;3.30;0.80;;;;;;;21.60;35.71;98534.75;5039860;28;20037;-72
2023/01/17 08:44:23;;;;;;;0.68;0.50;;;;;;;21.36;36.05;98534.19;5040429;28;20049;-72
2023/01/17 08:46:48;;;;;;;1.70;0.57;;;;;;;21.33;36.03;98545.22;5040880;28;20114;-72
2023/01/17 08:49:14;;;;;;;0.75;0.30;;;;;;;21.12;36.68;98538.03;5043165;28;20041;-73
2023/01/17 08:51:39;;;;;;;1.17;0.60;;;;;;;21.10;36.52;98546.22;5039432;28;20045;-72
2023/01/17 08:54:05;;;;;;;0.57;0.30;;;;;;;20.94;36.72;98536.44;5036885;28;20535;-73
2023/01/17 08:56:30;;;;;;;2.42;0.77;;;;;;;20.87;37.21;98549.03;5040475;28;20139;-72
2023/01/17 08:58:56;;;;;;;0.93;0.73;;;;;;;20.81;37.34;98553.44;5037613;28;20486;-73
2023/01/17 09:01:22;;;;;;;1.67;0.65;;;;;;;20.81;37.04;98550.00;5036679;28;20621;-71
2023/01/17 09:03:50;;;;;;;0.57;0.30;;;;;;;20.72;37.31;98557.53;5037582;28;20048;-72
2023/01/17 09:06:16;;;;;;;1.30;0.50;;;;;;;20.63;37.28;98556.31;5038940;28;20036;-73
2023/01/17 09:08:45;;;;;;;1.55;0.68;;;;;;;20.62;37.00;98559.19;5039122;28;20446;-71
2023/01/17 09:11:14;;;;;;;1.42;0.90;;;;;;;20.49;37.06;98547.09;5038692;28;20037;-72
2023/01/17 09:13:40;;;;;;;2.42;0.50;;;;;;;20.61;36.82;98561.03;5041988;28;20025;-70
2023/01/17 09:16:06;;;;;;;0.88;0.52;;;;;;;20.41;37.29;98561.50;5038994;28;20036;-71
2023/01/17 09:18:32;;;;;;;1.63;0.70;;;;;;;20.54;36.75;98564.88;5041100;28;20029;-74
2023/01/17 09:20:58;;;;;;;1.63;0.70;;;;;;;20.50;36.70;98561.94;5039658;28;20036;-75
2023/01/17 09:23:25;;;;;;;3.58;0.90;;;;;;;20.57;36.91;98559.13;5041185;28;20033;-74
2023/01/17 09:25:55;;;;;;;1.30;0.60;;;;;;;20.61;36.91;98571.63;5041233;28;20529;-74
2023/01/17 09:28:21;;;;;;;2.08;0.55;;;;;;;20.66;36.83;98570.91;5038204;28;20485;-73
2023/01/17 09:30:47;;;;;;;1.50;0.90;;;;;;;20.61;36.80;98576.91;5039547;28;20037;-74
2023/01/17 09:33:13;;;;;;;1.05;0.82;;;;;;;20.58;36.94;98568.66;5042106;28;20047;-72
2023/01/17 09:35:39;;;;;;;1.88;0.65;;;;;;;20.49;36.83;98577.00;5042366;28;20041;-73
2023/01/17 09:38:05;;;;;;;1.30;0.95;;;;;;;20.53;36.69;98572.03;5038535;28;20068;-74
2023/01/17 09:40:31;;;;;;;3.95;1.33;;;;;;;20.04;34.61;98584.84;5035534;28;20055;-70
2023/01/17 09:43:04;;;;;;;2.10;0.98;;;;;;;19.97;35.57;98580.72;5038209;28;20045;-74
2023/01/17 09:45:32;;;;;;;1.27;0.77;;;;;;;20.50;34.17;98578.59;4982927;28;20112;-72
2023/01/17 09:48:00;;;;;;;4.13;1.33;;;;;;;20.71;33.68;98581.56;5021780;28;20049;-72
2023/01/17 09:50:30;;;;;;;2.85;1.00;;;;;;;21.07;32.96;98585.59;5039621;28;20502;-72
2023/01/17 09:53:05;;;;;;;2.33;1.05;;;;;;;21.28;32.50;98579.56;5038605;28;20486;-71
2023/01/17 09:55:42;;;;;;;2.15;0.98;;;;;;;21.51;31.96;98581.22;5040951;28;20497;-72
2023/01/17 09:58:24;;;;;;;2.83;1.38;;;;;;;21.53;32.00;98592.34;5036291;28;20033;-71
2023/01/17 10:01:08;;;;;;;1.83;1.20;;;;;;;21.47;31.68;98593.34;4980082;28;20580;-73
2023/01/17 10:04:11;;;;;;;5.45;1.13;;;;;;;21.40;31.71;98601.47;5036552;28;20044;-74
2023/01/17 10:06:40;;;;;;;3.97;1.35;;;;;;;21.36;31.73;98605.66;5015354;28;20090;-75
2023/01/17 10:09:20;;;;;;;3.05;0.93;;;;;;;21.27;32.13;98611.59;5039829;28;20033;-74
2023/01/17 10:12:01;;;;;;;1.95;1.15;;;;;;;21.40;33.00;98617.34;5031340;28;20025;-73
2023/01/17 10:15:01;;;;;;;3.00;1.27;;;;;;;21.45;33.18;98605.22;5036051;28;20033;-73
2023/01/17 10:17:51;;;;;;;1.83;1.10;;;;;;;21.40;33.32;98605.97;5002399;28;20044;-73
2023/01/17 10:20:17;;;;;;;2.17;1.13;;;;;;;21.46;33.52;98606.84;5036543;28;20095;-72
2023/01/17 10:22:57;;;;;;;2.55;1.30;;;;;;;21.44;33.76;98617.66;5042892;28;20048;-72
2023/01/17 10:25:34;;;;;;;3.78;1.30;;;;;;;21.44;33.48;98617.66;5041218;28;20028;-72
2023/01/17 10:28:28;;;;;;;2.35;0.88;;;;;;;21.39;33.60;98628.19;5041887;28;20599;-72
2023/01/17 10:31:12;;;;;;;1.38;0.73;;;;;;;21.32;33.92;98624.91;5029531;28;20053;-73
2023/01/17 10:33:47;;;;;;;3.63;1.23;;;;;;;21.37;34.21;98635.59;5008470;28;20041;-72
2023/01/17 10:36:20;;;;;;;3.17;1.15;;;;;;;21.27;33.93;98619.53;5043173;28;20076;-72
2023/01/17 10:38:53;;;;;;;3.38;1.10;;;;;;;21.23;33.47;98635.06;5040056;28;20075;-72
2023/01/17 10:41:34;;;;;;;1.85;0.85;;;;;;;21.22;33.67;98635.31;5037411;28;20029;-74
2023/01/17 10:44:03;;;;;;;3.15;1.25;;;;;;;21.28;33.92;98631.72;5041313;28;20033;-72
2023/01/17 10:46:43;;;;;;;2.78;0.95;;;;;;;21.30;33.77;98632.28;5037041;28;20044;-72
2023/01/17 10:49:19;;;;;;;2.50;1.30;;;;;;;21.27;34.20;98630.13;5008513;28;20114;-72
2023/01/17 10:52:25;;;;;;;1.90;0.95;;;;;;;21.27;34.06;98628.28;5036644;28;20037;-71
2023/01/17 10:55:07;;;;;;;1.33;0.98;;;;;;;21.25;34.24;98625.06;5017842;28;20088;-71
2023/01/17 10:57:44;;;;;;;2.45;1.08;;;;;;;21.24;33.95;98623.47;5037765;28;20148;-72
2023/01/17 11:00:31;;;;;;;2.92;0.98;;;;;;;21.25;34.15;98613.69;5037364;28;20033;-73
2023/01/17 11:02:59;;;;;;;3.20;1.50;;;;;;;21.28;32.67;98608.69;5039237;28;20152;-70
2023/01/17 11:05:27;;;;;;;3.22;1.30;;;;;;;21.21;32.33;98612.53;5007398;28;20592;-72
2023/01/17 11:08:04;;;;;;;3.88;1.58;;;;;;;21.23;32.35;98619.19;5044067;28;20043;-72
2023/01/17 11:10:41;;;;;;;2.13;1.35;;;;;;;21.18;32.48;98616.44;5036179;28;20056;-70
2023/01/17 11:13:30;;;;;;;2.95;1.50;;;;;;;21.19;32.08;98611.97;5041047;28;20063;-74
2023/01/17 11:16:00;;;;;;;2.45;1.15;;;;;;;21.15;32.28;98597.59;5019960;28;20175;-69
2023/01/17 11:18:32;;;;;;;5.05;1.60;;;;;;;21.14;32.39;98610.03;5038103;28;20029;-73
2023/01/17 11:21:20;;;;;;;2.47;1.38;;;;;;;21.04;32.26;98602.75;5020026;28;20463;-71
2023/01/17 11:23:57;;;;;;;3.47;1.65;;;;;;;21.15;32.58;98609.00;5024132;28;20048;-70
2023/01/17 11:26:29;;;;;;;4.35;1.85;;;;;;;21.15;32.49;98601.06;5036146;28;20029;-71
2023/01/17 11:29:13;;;;;;;3.65;1.40;;;;;;;21.12;32.29;98601.53;5034549;28;20041;-68
2023/01/17 11:31:38;;;;;;;4.18;1.52;;;;;;;21.06;32.14;98597.22;5034683;28;20036;-69
2023/01/17 11:34:16;;;;;;;5.15;1.70;;;;;;;20.98;32.49;98577.25;5032797;28;20063;-75
2023/01/17 11:36:42;;;;;;;2.75;1.48;;;;;;;21.16;32.61;98604.50;5039712;28;20056;-71
2023/01/17 11:39:16;;;;;;;3.65;1.48;;;;;;;21.15;32.41;98594.97;5015821;28;20045;-72
2023/01/17 11:41:42;;;;;;;3.38;1.35;;;;;;;21.05;32.10;98593.78;5037357;28;20493;-72
2023/01/17 11:44:23;;;;;;;3.22;1.40;;;;;;;21.07;32.22;98594.34;5037431;28;20047;-72
2023/01/17 11:47:24;;;;;;;6.10;1.80;;;;;;;21.10;32.04;98596.50;5034150;28;20620;-72
2023/01/17 11:49:49;;;;;;;2.35;1.10;;;;;;;21.15;31.77;98587.00;5037721;28;20064;-72
2023/01/17 11:52:24;;;;;;;4.50;1.65;;;;;;;20.98;32.50;98581.72;5033217;28;20494;-75
2023/01/17 11:54:52;;;;;;;2.30;1.10;;;;;;;21.12;33.08;98586.47;5030833;28;20854;-74
2023/01/17 11:57:23;;;;;;;2.28;1.20;;;;;;;21.13;33.24;98584.63;5012732;28;20106;-75
2023/01/17 12:00:23;;;;;;;1.73;1.17;;;;;;;21.13;33.30;98584.63;5031562;28;20108;-75
2023/01/17 12:03:35;;;;;;;3.35;1.40;;;;;;;21.27;33.15;98585.13;5031419;28;20048;-74
2023/01/17 12:06:18;;;;;;;3.28;1.38;;;;;;;21.24;33.31;98567.06;5032785;28;20494;-74
2023/01/17 12:08:52;;;;;;;3.53;1.52;;;;;;;21.31;33.42;98576.44;5037304;28;20044;-74
2023/01/17 12:13:59;;;;;;;2.90;1.20;;;;;;;21.13;33.65;98553.66;5003400;28;20033;-75
2023/01/17 12:14:41;;;;;;;2.80;1.42;;;;;;;21.27;33.63;98577.19;5033146;28;20113;-74
2023/01/17 12:17:26;;;;;;;1.67;0.90;;;;;;;21.30;33.64;98566.91;5033917;28;20050;-75
2023/01/17 12:20:00;;;;;;;2.45;1.42;;;;;;;21.29;33.70;98573.25;5034152;28;20037;-74
2023/01/17 12:22:42;;;;;;;2.00;1.02;;;;;;;21.31;33.92;98576.44;5034893;28;20072;-74
2023/01/17 12:25:26;;;;;;;4.60;1.27;;;;;;;21.27;33.81;98583.28;5038586;28;20906;-74
2023/01/17 12:28:21;;;;;;;2.47;1.17;;;;;;;21.29;33.96;98583.03;5008437;28;20058;-74
2023/01/17 12:31:33;;;;;;;1.10;1.00;;;;;;;21.26;33.92;98573.72;5034567;28;20045;-74
2023/01/17 12:34:18;;;;;;;1.85;0.93;;;;;;;21.29;33.76;98575.09;5028633;28;21101;-74
2023/01/17 12:36:51;;;;;;;2.47;0.98;;;;;;;21.27;33.82;98588.56;5031801;28;20040;-74
2023/01/17 12:39:25;;;;;;;3.78;1.88;;;;;;;21.21;34.03;98572.84;5026757;28;20662;-74
2023/01/17 12:41:54;;;;;;;2.17;1.00;;;;;;;21.23;33.70;98576.84;5029775;28;20025;-75
2023/01/17 12:44:31;;;;;;;1.08;0.98;;;;;;;21.12;33.82;98562.63;5000845;28;20075;-74
2023/01/17 12:47:01;;;;;;;1.08;0.98;;;;;;;21.20;33.82;98579.97;5030577;28;20060;-74
2023/01/17 12:49:44;;;;;;;1.40;1.02;;;;;;;21.01;34.48;98579.44;5031452;28;20044;-74
2023/01/17 12:52:13;;;;;;;2.05;0.95;;;;;;;21.16;34.43;98570.91;5034783;28;20528;-74
2023/01/17 12:54:44;;;;;;;2.47;1.05;;;;;;;21.18;34.15;98571.44;5031778;28;20131;-73
2023/01/17 12:57:33;;;;;;;2.97;1.30;;;;;;;21.23;34.29;98584.78;5031439;28;20037;-73
2023/01/17 13:00:07;;;;;;;2.40;1.30;;;;;;;21.24;34.37;98580.28;4997456;28;20071;-74
2023/01/17 13:02:47;;;;;;;1.20;0.88;;;;;;;21.23;34.26;98589.28;5032665;28;20119;-74
2023/01/17 13:05:22;;;;;;;1.20;0.82;;;;;;;21.20;34.00;98581.81;5032974;28;20045;-74
2023/01/17 13:07:58;;;;;;;1.05;0.70;;;;;;;21.15;34.00;98565.84;5031738;28;20032;-75
2023/01/17 13:10:44;;;;;;;1.38;0.98;;;;;;;21.23;34.12;98579.47;5031461;28;20555;-74
2023/01/17 13:13:21;;;;;;;1.73;1.00;;;;;;;21.23;34.15;98583.97;5030379;28;20192;-74